Terminal Aerodrome Forecast
Issued by NWS Brownsville, TX

Home | Current Version | Previous Version | Text Only | Print | Product List | Glossary On
Versions: 1 2 3 4 5 6 7 8 9 10 11 12 13 14 15 16 17
000
FTUS44 KBRO 310200 AAA
TAFMFE
TAF AMD
KMFE 310206Z 3102/3124 14019G25KT P6SM SKC
     FM310500 14010G15KT P6SM SKC
     FM310900 14005KT P6SM FEW025
     FM311300 16015KT P6SM SKC
     FM311500 15015G22KT P6SM FEW250=

USA.gov is the U.S. government's official web portal to all federal, state and local government web resources and services.